Time;durP1;ratioP1;P1;durP2;ratioP2;P2;SDS_P1;SDS_P2;PMS_P1;PMS_P2;Temp;Humidity;BMP_temperature;BMP_pressure;BME280_temperature;BME280_humidity;BME280_pressure;Samples;Min_cycle;Max_cycle;Signal;HPM_P1;HPM_P2
2023/02/24 00:01:38;;;;;;;8.75;1.92;;;;;;;14.79;47.95;101320.75;5037404;28;20033;-61
2023/02/24 00:04:08;;;;;;;6.50;1.80;;;;;;;14.77;46.86;101317.34;5020769;28;20037;-61
2023/02/24 00:06:36;;;;;;;9.65;1.60;;;;;;;14.78;47.01;101313.63;5038130;28;20029;-62
2023/02/24 00:09:05;;;;;;;11.85;2.03;;;;;;;14.76;47.09;101304.84;5055505;28;20426;-61
2023/02/24 00:11:30;;;;;;;9.55;1.98;;;;;;;14.77;46.77;101306.56;5057284;28;20037;-61
2023/02/24 00:13:56;;;;;;;9.63;1.80;;;;;;;14.76;47.38;101304.84;5056572;28;20039;-61
2023/02/24 00:16:24;;;;;;;10.25;2.08;;;;;;;14.75;48.14;101298.59;5037232;28;20041;-61
2023/02/24 00:18:50;;;;;;;9.65;2.03;;;;;;;14.76;47.44;101299.47;5037320;28;20049;-61
2023/02/24 00:21:15;;;;;;;9.77;2.28;;;;;;;14.73;46.84;101294.34;5020329;28;20508;-61
2023/02/24 00:23:45;;;;;;;9.88;2.17;;;;;;;14.74;48.24;101293.38;5037621;28;20021;-61
2023/02/24 00:26:12;;;;;;;7.00;2.22;;;;;;;14.73;47.96;101283.56;5037032;28;20048;-61
2023/02/24 00:28:38;;;;;;;12.43;2.33;;;;;;;14.69;46.99;101272.22;5053436;28;20057;-61
2023/02/24 00:31:15;;;;;;;5.65;1.25;;;;;;;14.72;47.01;101268.38;5036428;28;20060;-61
2023/02/24 00:33:42;;;;;;;13.65;1.60;;;;;;;14.71;47.36;101270.25;5036535;28;20067;-61
2023/02/24 00:36:14;;;;;;;12.70;1.75;;;;;;;14.71;48.02;101267.53;5054932;28;20465;-62
2023/02/24 00:38:45;;;;;;;15.45;2.08;;;;;;;14.68;47.10;101265.13;5036559;28;20493;-61
2023/02/24 00:41:21;;;;;;;14.40;2.75;;;;;;;14.67;47.99;101276.91;5036971;28;20436;-62
2023/02/24 00:43:48;;;;;;;9.07;2.20;;;;;;;14.67;47.63;101267.97;5037124;28;20056;-61
2023/02/24 00:46:19;;;;;;;14.27;1.98;;;;;;;14.63;47.46;101266.56;5053697;28;20086;-62
2023/02/24 00:48:46;;;;;;;8.10;1.58;;;;;;;14.64;47.50;101269.09;5036647;28;20040;-62
2023/02/24 00:51:22;;;;;;;16.70;1.85;;;;;;;14.63;47.50;101269.25;5037008;28;20067;-61
2023/02/24 00:53:48;;;;;;;5.88;2.00;;;;;;;14.60;46.44;101256.06;5037250;28;20041;-61
2023/02/24 00:56:16;;;;;;;10.05;2.15;;;;;;;14.58;46.46;101257.06;5019995;28;20033;-60
2023/02/24 00:58:43;;;;;;;4.97;1.45;;;;;;;14.57;46.40;101251.81;5020237;28;20051;-61
2023/02/24 01:01:15;;;;;;;14.20;1.80;;;;;;;14.55;47.03;101246.56;5003783;28;20532;-61
2023/02/24 01:03:41;;;;;;;10.57;1.77;;;;;;;14.53;46.22;101245.84;5020139;28;20053;-61
2023/02/24 01:06:06;;;;;;;14.35;3.70;;;;;;;14.54;45.96;101236.75;5036541;28;20782;-62
2023/02/24 01:08:35;;;;;;;9.30;2.13;;;;;;;14.52;47.27;101241.44;5003400;28;20033;-61
2023/02/24 01:13:45;;;;;;;10.68;1.90;;;;;;;14.50;46.83;101229.97;5038624;28;20087;-61
2023/02/24 01:16:17;;;;;;;10.95;1.58;;;;;;;14.50;45.97;101227.28;5053549;28;20440;-62
2023/02/24 01:18:43;;;;;;;11.68;1.42;;;;;;;14.50;47.57;101229.13;5036660;28;20041;-61
2023/02/24 01:21:11;;;;;;;8.20;1.92;;;;;;;14.49;46.96;101222.00;5036193;28;20033;-61
2023/02/24 01:23:36;;;;;;;13.82;2.25;;;;;;;14.45;45.70;101226.84;5035952;28;20036;-61
2023/02/24 01:26:02;;;;;;;20.80;2.13;;;;;;;14.47;47.10;101227.56;5019254;28;20037;-61
2023/02/24 01:28:27;;;;;;;18.48;2.78;;;;;;;14.46;45.83;101225.84;5019060;28;20134;-61
2023/02/24 01:30:53;;;;;;;10.27;1.63;;;;;;;14.44;46.39;101225.16;5035504;28;20075;-62
2023/02/24 01:33:20;;;;;;;11.82;1.83;;;;;;;14.44;46.34;101225.16;5035508;28;20036;-61
2023/02/24 01:35:46;;;;;;;12.80;1.60;;;;;;;14.43;45.69;101223.44;5019351;28;20021;-61
2023/02/24 01:38:12;;;;;;;10.18;2.38;;;;;;;14.43;46.79;101223.44;5035694;28;20063;-61
2023/02/24 01:40:37;;;;;;;13.75;2.33;;;;;;;14.41;46.05;101220.03;5018835;28;20128;-61
2023/02/24 01:43:07;;;;;;;9.85;2.30;;;;;;;14.40;46.91;101212.97;5053121;28;20098;-61
2023/02/24 01:45:35;;;;;;;12.32;2.08;;;;;;;14.38;46.89;101209.53;5035087;28;20040;-61
2023/02/24 01:48:05;;;;;;;7.93;2.50;;;;;;;14.39;47.24;101205.88;5019264;28;20031;-61
2023/02/24 01:50:34;;;;;;;15.90;2.70;;;;;;;14.36;46.76;101205.31;5034986;28;20044;-61
2023/02/24 01:53:02;;;;;;;11.48;2.97;;;;;;;14.34;46.32;101204.59;5018947;28;20079;-61
2023/02/24 01:55:31;;;;;;;8.77;2.05;;;;;;;14.33;47.35;101210.97;5035299;28;20123;-62
2023/02/24 01:57:59;;;;;;;6.53;1.75;;;;;;;14.30;47.43;101203.13;5017751;28;20029;-61
2023/02/24 02:00:36;;;;;;;14.75;2.03;;;;;;;14.25;47.21;101203.59;5034045;28;20028;-60
2023/02/24 02:03:29;;;;;;;16.02;2.30;;;;;;;14.22;47.52;101203.88;5020534;28;20033;-61
2023/02/24 02:06:05;;;;;;;7.80;1.55;;;;;;;14.19;46.21;101198.78;5030886;28;20119;-62
2023/02/24 02:08:31;;;;;;;9.23;1.70;;;;;;;14.18;47.57;101202.44;5018956;28;20043;-61
2023/02/24 02:11:01;;;;;;;13.85;1.70;;;;;;;14.18;47.30;101197.06;5034172;28;20088;-61
2023/02/24 02:13:27;;;;;;;10.70;1.98;;;;;;;14.17;46.08;101205.28;5018365;28;20465;-62
2023/02/24 02:16:04;;;;;;;13.57;2.33;;;;;;;14.17;47.43;101199.91;5033207;28;20490;-61
2023/02/24 02:18:47;;;;;;;14.18;1.80;;;;;;;14.14;47.03;101192.97;5051423;28;20079;-62
2023/02/24 02:22:01;;;;;;;17.95;2.00;;;;;;;14.15;46.88;101194.69;5034603;28;20029;-61
2023/02/24 02:24:26;;;;;;;16.23;4.05;;;;;;;14.15;46.74;101193.81;4992329;28;20049;-61
2023/02/24 02:27:10;;;;;;;10.27;1.60;;;;;;;14.14;46.16;101194.81;5053444;28;20040;-61
2023/02/24 02:29:38;;;;;;;16.92;2.03;;;;;;;14.12;47.63;101186.03;5052501;28;20501;-61
2023/02/24 02:32:15;;;;;;;9.82;1.55;;;;;;;14.12;46.18;101186.03;5034616;28;20072;-61
2023/02/24 02:34:44;;;;;;;11.73;2.03;;;;;;;14.10;47.51;101169.97;5034625;28;20029;-62
2023/02/24 02:37:17;;;;;;;5.45;2.10;;;;;;;14.10;46.64;101171.84;5052407;28;20057;-61
2023/02/24 02:39:57;;;;;;;17.05;1.98;;;;;;;14.07;46.83;101162.19;5018317;28;20455;-61
2023/02/24 02:42:38;;;;;;;18.70;2.63;;;;;;;14.08;47.53;101163.03;5018820;28;20090;-61
2023/02/24 02:45:06;;;;;;;12.82;1.85;;;;;;;14.07;47.32;101155.97;5034975;28;20478;-61
2023/02/24 02:48:32;;;;;;;15.13;2.35;;;;;;;14.07;47.32;101151.41;5017286;28;20033;-62
2023/02/24 02:51:06;;;;;;;12.35;2.35;;;;;;;14.05;47.30;101150.72;4955617;28;20042;-61
2023/02/24 02:53:53;;;;;;;10.68;1.30;;;;;;;14.03;46.17;101155.41;4955621;28;20038;-61
2023/02/24 02:56:23;;;;;;;15.15;2.05;;;;;;;14.00;46.20;101145.78;4971753;28;20054;-61
2023/02/24 02:58:52;;;;;;;10.20;1.73;;;;;;;14.00;46.17;101136.84;4971611;28;20546;-61
2023/02/24 03:01:20;;;;;;;11.40;1.42;;;;;;;14.02;46.64;101132.16;4971833;28;20066;-62
2023/02/24 03:03:50;;;;;;;8.13;1.30;;;;;;;14.02;46.76;101137.53;4955714;28;20035;-61
2023/02/24 03:06:26;;;;;;;10.15;2.03;;;;;;;14.00;47.50;101128.75;4955274;28;20039;-61
2023/02/24 03:09:15;;;;;;;9.57;1.88;;;;;;;14.00;46.84;101126.91;4957767;28;20031;-61
2023/02/24 03:11:42;;;;;;;19.80;2.00;;;;;;;13.96;46.34;101117.41;4975302;28;20051;-61
2023/02/24 03:14:11;;;;;;;15.15;2.35;;;;;;;14.00;46.38;101120.66;4975136;28;20034;-61
2023/02/24 03:16:39;;;;;;;8.65;2.08;;;;;;;13.98;46.91;101126.22;4974819;28;20514;-61
2023/02/24 03:19:07;;;;;;;11.35;2.00;;;;;;;13.98;47.14;101117.28;4958685;28;20058;-61
2023/02/24 03:21:39;;;;;;;8.30;1.70;;;;;;;13.96;46.28;101111.16;4959059;28;20127;-60
2023/02/24 03:24:05;;;;;;;6.88;1.83;;;;;;;13.93;46.03;101114.19;4972318;28;20029;-61
2023/02/24 03:26:50;;;;;;;8.05;1.40;;;;;;;13.93;46.28;101111.47;5037889;28;20496;-61
2023/02/24 03:29:44;;;;;;;16.90;2.28;;;;;;;13.92;47.22;101109.78;5021554;28;20520;-61
2023/02/24 03:32:19;;;;;;;10.02;2.60;;;;;;;13.91;46.38;101097.28;5054593;28;20060;-61
2023/02/24 03:35:05;;;;;;;8.95;2.85;;;;;;;13.88;47.05;101097.56;5055444;28;20083;-61
2023/02/24 03:37:32;;;;;;;9.85;1.48;;;;;;;13.90;46.26;101101.00;5054248;28;20035;-61
2023/02/24 03:39:59;;;;;;;7.63;2.17;;;;;;;13.91;46.23;101102.69;5021393;28;20029;-62
2023/02/24 03:42:29;;;;;;;15.13;1.75;;;;;;;13.89;46.75;101083.97;5021372;28;20387;-61
2023/02/24 03:44:57;;;;;;;18.58;2.45;;;;;;;13.88;46.03;101098.44;5021336;28;20029;-61
2023/02/24 03:47:23;;;;;;;9.93;2.78;;;;;;;13.90;46.37;101101.00;5021186;28;20452;-61
2023/02/24 03:49:49;;;;;;;8.30;2.25;;;;;;;13.90;46.47;101098.31;5037539;28;20056;-61
2023/02/24 03:52:45;;;;;;;21.20;2.40;;;;;;;13.89;47.16;101104.66;5037421;28;20505;-61
2023/02/24 03:55:43;;;;;;;13.95;2.60;;;;;;;13.86;47.25;101088.81;5055210;28;20033;-61
2023/02/24 03:58:31;;;;;;;9.88;1.55;;;;;;;13.85;46.93;101087.09;5055285;28;20117;-61
2023/02/24 04:01:12;;;;;;;12.05;1.95;;;;;;;13.84;47.21;101090.78;5055071;28;20029;-61
2023/02/24 04:04:00;;;;;;;4.88;1.38;;;;;;;13.83;47.34;101089.09;5055148;28;20025;-61
2023/02/24 04:06:34;;;;;;;17.42;3.38;;;;;;;13.81;47.20;101085.69;5037266;28;20492;-62
2023/02/24 04:09:00;;;;;;;5.03;1.20;;;;;;;13.80;46.89;101087.53;5037599;28;20025;-61
2023/02/24 04:11:45;;;;;;;8.02;1.52;;;;;;;13.82;45.63;101076.59;5053936;28;20087;-61
2023/02/24 04:14:18;;;;;;;12.02;1.88;;;;;;;13.80;46.65;101078.59;5037184;28;20033;-61
2023/02/24 04:16:52;;;;;;;7.55;2.75;;;;;;;13.79;47.40;101064.28;5054494;28;20040;-61
2023/02/24 04:19:20;;;;;;;13.73;2.28;;;;;;;13.76;46.68;101061.06;5020095;28;20032;-61
2023/02/24 04:21:47;;;;;;;6.45;1.92;;;;;;;13.79;46.55;101071.53;5019840;28;20505;-61
2023/02/24 04:24:15;;;;;;;14.23;2.25;;;;;;;13.77;45.95;101073.50;5037587;28;20436;-61
2023/02/24 04:26:43;;;;;;;17.02;1.63;;;;;;;13.78;46.65;101059.06;5020815;28;20079;-60
2023/02/24 04:29:16;;;;;;;12.23;1.65;;;;;;;13.77;46.87;101068.97;5036831;28;20520;-61
2023/02/24 04:31:44;;;;;;;23.75;2.38;;;;;;;13.77;46.65;101068.13;5020695;28;20397;-61
2023/02/24 04:34:09;;;;;;;16.80;1.85;;;;;;;13.76;46.93;101061.06;5036654;28;20087;-61
2023/02/24 04:36:37;;;;;;;15.20;2.30;;;;;;;13.74;45.80;101066.56;5038125;28;20029;-61
2023/02/24 04:39:03;;;;;;;13.63;1.95;;;;;;;13.75;46.13;101053.97;5056802;28;20178;-61
2023/02/24 04:41:29;;;;;;;5.90;1.58;;;;;;;13.73;45.95;101050.56;5022491;28;20079;-61
2023/02/24 04:43:55;;;;;;;8.38;1.80;;;;;;;13.71;45.76;101047.16;5052450;28;20504;-61
2023/02/24 04:46:22;;;;;;;16.48;2.58;;;;;;;13.69;46.79;101054.53;5036407;28;20409;-61
2023/02/24 04:48:49;;;;;;;15.18;2.58;;;;;;;13.66;47.29;101042.19;5020408;28;20400;-61
2023/02/24 04:51:15;;;;;;;6.80;1.63;;;;;;;13.65;46.15;101045.06;5054093;28;20443;-62
2023/02/24 04:53:40;;;;;;;8.57;1.77;;;;;;;13.64;46.47;101041.50;5036856;28;20029;-61
2023/02/24 04:56:07;;;;;;;19.58;2.42;;;;;;;13.63;46.08;101038.94;5003658;28;20037;-61
2023/02/24 04:58:36;;;;;;;8.38;2.05;;;;;;;13.62;46.42;101048.03;5036629;28;20037;-61
2023/02/24 05:01:08;;;;;;;12.35;2.65;;;;;;;13.59;45.89;101033.03;5019385;28;20037;-61
2023/02/24 05:03:34;;;;;;;6.85;1.35;;;;;;;13.59;46.97;101037.53;5019891;28;20099;-61
2023/02/24 05:06:00;;;;;;;15.55;1.92;;;;;;;13.54;45.89;101034.44;5036707;28;20036;-61
2023/02/24 05:08:26;;;;;;;8.50;2.08;;;;;;;13.53;46.26;101032.72;5019897;28;20401;-61
2023/02/24 05:10:53;;;;;;;12.18;2.10;;;;;;;13.52;46.80;101031.03;5036425;28;20029;-61
2023/02/24 05:13:30;;;;;;;9.90;2.05;;;;;;;13.50;46.90;101030.31;5036713;28;20036;-61
2023/02/24 05:15:59;;;;;;;9.30;1.42;;;;;;;13.47;45.91;101028.78;5054034;28;20032;-61
2023/02/24 05:18:25;;;;;;;11.20;1.60;;;;;;;13.46;47.10;101026.22;5035744;28;20083;-61
2023/02/24 05:23:44;;;;;;;7.97;1.63;;;;;;;13.39;46.47;101031.34;5038742;28;20414;-61
2023/02/24 05:26:17;;;;;;;12.52;2.10;;;;;;;13.34;46.07;101025.53;5019109;28;20040;-61
2023/02/24 05:28:47;;;;;;;7.90;1.67;;;;;;;13.34;46.53;101023.66;5036123;28;20053;-61
2023/02/24 05:31:15;;;;;;;10.77;2.20;;;;;;;13.30;45.93;101016.88;5035921;28;20035;-61
2023/02/24 05:33:43;;;;;;;10.88;1.70;;;;;;;13.27;46.54;101022.53;5019025;28;20108;-61
2023/02/24 05:36:11;;;;;;;12.85;2.45;;;;;;;13.25;46.33;101019.16;5035889;28;20021;-61
2023/02/24 05:38:37;;;;;;;15.45;2.80;;;;;;;13.21;46.70;101015.03;5018901;28;20037;-61
2023/02/24 05:41:07;;;;;;;6.93;1.75;;;;;;;13.17;46.12;101010.94;5052960;28;20044;-61
2023/02/24 05:43:34;;;;;;;16.80;1.90;;;;;;;13.09;46.76;100996.50;5035065;28;20033;-62
2023/02/24 05:46:03;;;;;;;4.88;3.33;;;;;;;13.09;46.85;101007.25;5051840;28;20115;-61
2023/02/24 05:48:33;;;;;;;11.77;1.52;;;;;;;13.06;46.85;100999.44;5018653;28;20021;-61
2023/02/24 05:51:02;;;;;;;15.80;2.58;;;;;;;12.97;46.57;100987.69;5036339;28;20090;-61
2023/02/24 05:53:28;;;;;;;4.07;1.73;;;;;;;12.92;46.37;100989.97;5051870;28;20033;-61
2023/02/24 05:55:54;;;;;;;14.80;1.75;;;;;;;12.86;46.33;100990.50;5053102;28;20564;-61
2023/02/24 05:58:19;;;;;;;8.73;1.17;;;;;;;12.79;46.65;100983.97;5035527;28;20124;-61
2023/02/24 06:00:45;;;;;;;10.27;1.38;;;;;;;12.75;46.96;100982.56;5035549;28;20627;-61
2023/02/24 06:03:16;;;;;;;10.98;1.95;;;;;;;12.72;47.01;100980.16;5019005;28;20033;-61
2023/02/24 06:05:52;;;;;;;12.57;2.97;;;;;;;12.67;46.40;100975.19;5053184;28;20406;-61
2023/02/24 06:08:17;;;;;;;7.50;1.75;;;;;;;12.65;45.65;100976.31;5019232;28;20044;-62
2023/02/24 06:10:45;;;;;;;8.27;1.75;;;;;;;12.61;46.26;100974.91;5032976;28;20033;-60
2023/02/24 06:13:11;;;;;;;5.95;1.85;;;;;;;12.55;46.88;100970.09;5033093;28;20044;-61
2023/02/24 06:15:36;;;;;;;12.05;1.52;;;;;;;12.49;46.18;100970.63;4998725;28;20029;-61
2023/02/24 06:18:02;;;;;;;16.10;2.92;;;;;;;12.46;45.75;100976.28;4999167;28;20433;-61
2023/02/24 06:20:28;;;;;;;5.53;2.30;;;;;;;12.44;47.13;100978.25;4999038;28;20042;-61
2023/02/24 06:22:56;;;;;;;9.57;2.10;;;;;;;12.42;45.75;100977.56;4998865;28;20048;-60
2023/02/24 06:25:24;;;;;;;7.68;1.33;;;;;;;12.39;46.53;100977.81;4998961;28;20057;-61
2023/02/24 06:27:54;;;;;;;16.35;1.60;;;;;;;12.37;46.12;100971.75;5015841;28;20041;-61
2023/02/24 06:30:21;;;;;;;7.75;1.52;;;;;;;12.34;45.92;100966.66;5015442;28;20091;-61
2023/02/24 06:32:47;;;;;;;6.97;1.58;;;;;;;12.32;46.58;100968.59;4998890;28;20033;-61
2023/02/24 06:35:12;;;;;;;6.45;1.73;;;;;;;12.31;46.16;100966.91;5015389;28;20030;-61
2023/02/24 06:45:25;;;;;;;10.10;2.65;;;;;;;12.44;46.68;100956.78;4146595;23;20076;-61
2023/02/24 06:47:50;;;;;;;8.07;1.92;;;;;;;12.48;46.21;100958.22;5006432;28;20026;-61
2023/02/24 06:50:19;;;;;;;12.18;2.85;;;;;;;12.52;47.02;100959.59;4982847;28;20551;-63
2023/02/24 06:52:45;;;;;;;4.13;1.60;;;;;;;12.56;46.65;100950.31;5016853;28;20041;-61
2023/02/24 06:55:23;;;;;;;9.25;2.30;;;;;;;12.56;46.93;100945.75;4999863;28;20033;-61
2023/02/24 06:58:03;;;;;;;7.10;2.50;;;;;;;12.64;46.50;100963.88;5015796;28;20045;-62
2023/02/24 07:00:39;;;;;;;10.20;1.52;;;;;;;12.68;47.14;100954.53;4968862;28;20196;-61
2023/02/24 07:03:13;;;;;;;14.45;1.85;;;;;;;12.72;47.11;100950.59;4999340;28;20076;-60
2023/02/24 07:06:09;;;;;;;13.82;1.80;;;;;;;12.76;46.85;100941.25;4999853;28;20045;-60
2023/02/24 07:08:36;;;;;;;7.85;1.95;;;;;;;12.79;46.38;100951.72;5002208;28;20037;-61
2023/02/24 07:11:05;;;;;;;15.52;2.40;;;;;;;12.80;46.32;100948.91;4998963;28;20046;-60
2023/02/24 07:13:31;;;;;;;6.50;1.85;;;;;;;12.84;47.15;100949.50;4999368;28;20038;-60
2023/02/24 07:16:02;;;;;;;12.88;1.65;;;;;;;12.87;45.75;100946.50;4998764;28;20034;-61
2023/02/24 07:18:29;;;;;;;15.10;1.75;;;;;;;12.90;47.28;100954.28;4998263;28;20032;-61
2023/02/24 07:20:55;;;;;;;17.38;2.20;;;;;;;12.93;46.28;100948.63;4999385;28;20025;-61
2023/02/24 07:23:20;;;;;;;14.65;1.92;;;;;;;12.95;47.18;100952.03;5014906;28;20570;-60
2023/02/24 07:25:45;;;;;;;12.52;1.70;;;;;;;12.93;46.81;100947.75;4998535;28;20049;-61
2023/02/24 07:28:12;;;;;;;12.50;1.45;;;;;;;12.99;45.68;100948.06;4998887;28;20034;-61
2023/02/24 07:30:39;;;;;;;9.02;1.40;;;;;;;13.00;46.53;100944.38;4999214;28;20038;-60
2023/02/24 07:33:06;;;;;;;5.07;1.50;;;;;;;13.00;45.55;100928.25;4999452;28;20046;-61
2023/02/24 07:35:32;;;;;;;11.32;1.83;;;;;;;13.06;46.60;100927.69;4998431;28;20052;-61
2023/02/24 07:38:00;;;;;;;13.45;2.08;;;;;;;13.08;46.11;100911.44;4998398;28;20050;-61
2023/02/24 07:40:33;;;;;;;9.95;1.98;;;;;;;13.05;46.67;100891.03;4998627;28;20037;-62
2023/02/24 07:43:01;;;;;;;14.47;1.33;;;;;;;13.15;46.56;100907.19;5015811;28;20053;-60
2023/02/24 07:45:28;;;;;;;7.03;1.95;;;;;;;13.22;46.82;100911.84;4992194;28;20288;-62
2023/02/24 07:47:54;;;;;;;4.60;1.40;;;;;;;13.27;45.26;100903.31;4995394;28;20536;-61
2023/02/24 07:50:20;;;;;;;9.77;1.85;;;;;;;13.29;46.52;100899.50;5011372;28;20038;-61
2023/02/24 07:52:49;;;;;;;5.03;1.45;;;;;;;13.31;45.97;100900.22;5011194;28;20125;-61
2023/02/24 07:55:14;;;;;;;3.80;1.30;;;;;;;13.34;46.07;100894.53;4994752;28;20038;-61
2023/02/24 07:57:45;;;;;;;10.02;1.92;;;;;;;13.38;46.02;100890.56;4995980;28;20041;-61
2023/02/24 08:00:17;;;;;;;8.23;1.65;;;;;;;13.39;45.77;100881.50;4979479;28;20038;-61
2023/02/24 08:02:43;;;;;;;10.93;1.90;;;;;;;13.41;46.18;100892.97;4996111;28;20374;-62
2023/02/24 08:05:09;;;;;;;11.25;1.67;;;;;;;13.43;45.69;100882.03;4994589;28;20030;-61
2023/02/24 08:07:34;;;;;;;8.85;1.52;;;;;;;13.48;44.85;100878.94;5013707;28;20528;-61
2023/02/24 08:10:09;;;;;;;9.45;1.92;;;;;;;13.52;45.24;100877.63;5015295;28;20092;-61
2023/02/24 08:12:34;;;;;;;13.55;2.33;;;;;;;13.54;44.75;100873.78;5014227;28;20093;-61
2023/02/24 08:15:07;;;;;;;6.80;1.23;;;;;;;13.58;45.45;100866.28;4997961;28;20516;-62
2023/02/24 08:17:33;;;;;;;13.50;1.95;;;;;;;13.63;44.83;100862.16;5015152;28;20041;-61
2023/02/24 08:22:45;;;;;;;6.22;1.77;;;;;;;13.64;44.86;100852.22;5014487;28;20030;-61
2023/02/24 08:25:17;;;;;;;11.55;2.00;;;;;;;13.70;45.89;100867.78;4999471;28;20034;-61
2023/02/24 08:27:44;;;;;;;5.88;1.55;;;;;;;13.75;45.91;100865.50;5016184;28;20481;-61
2023/02/24 08:30:22;;;;;;;11.95;3.13;;;;;;;13.77;45.07;100852.72;5015668;28;20029;-61
2023/02/24 08:32:55;;;;;;;9.40;1.85;;;;;;;13.84;45.89;100853.84;5014121;28;20124;-61
2023/02/24 08:35:24;;;;;;;11.57;3.00;;;;;;;13.87;45.78;100858.94;4998086;28;20033;-61
2023/02/24 08:37:52;;;;;;;19.45;2.25;;;;;;;13.92;44.75;100851.25;5013786;28;20599;-62
2023/02/24 08:43:31;;;;;;;8.65;2.42;;;;;;;13.97;45.32;100840.88;5013846;28;20033;-61
2023/02/24 08:46:04;;;;;;;16.00;2.60;;;;;;;14.03;44.29;100829.50;5013703;28;20057;-62
2023/02/24 08:48:36;;;;;;;14.48;2.30;;;;;;;14.11;44.37;100828.72;5013563;28;20088;-60
2023/02/24 08:51:09;;;;;;;10.40;2.38;;;;;;;14.16;45.84;100815.66;5013856;28;20030;-61
2023/02/24 08:53:39;;;;;;;10.10;2.42;;;;;;;14.19;44.74;100813.50;5014543;28;20041;-60
2023/02/24 08:56:10;;;;;;;8.23;2.30;;;;;;;14.22;44.88;100821.28;5013252;28;20026;-61
2023/02/24 08:58:45;;;;;;;8.68;2.40;;;;;;;14.35;45.34;100815.56;5013412;28;20026;-61
2023/02/24 09:01:22;;;;;;;6.93;2.88;;;;;;;14.43;43.70;100813.75;5013339;28;20125;-61
2023/02/24 09:03:50;;;;;;;11.43;2.40;;;;;;;14.41;45.18;100814.91;5013125;28;20034;-60
2023/02/24 09:06:24;;;;;;;5.88;2.30;;;;;;;14.41;44.89;100802.28;5012591;28;20527;-61
2023/02/24 09:09:15;;;;;;;9.50;2.67;;;;;;;14.51;44.04;100811.16;4997638;28;20105;-61
2023/02/24 09:11:36;;;;;;;12.50;3.35;;;;;;;14.69;44.51;100802.19;5013030;28;20034;-61
2023/02/24 09:14:03;;;;;;;8.73;3.03;;;;;;;15.00;43.42;100795.34;5012871;28;20125;-61
2023/02/24 09:16:29;;;;;;;17.00;3.75;;;;;;;15.41;44.31;100799.16;5014094;28;20402;-61
2023/02/24 09:24:13;;;;;;;10.85;2.33;;;;;;;15.81;43.03;100779.59;5014658;28;20120;-61
2023/02/24 09:26:44;;;;;;;13.35;3.10;;;;;;;15.68;43.84;100778.22;5012536;28;20044;-61
2023/02/24 09:32:03;;;;;;;10.48;2.20;;;;;;;15.92;43.90;100777.44;4999072;28;20036;-61
2023/02/24 09:34:36;;;;;;;11.57;2.90;;;;;;;16.26;41.99;100772.78;5012882;28;20559;-62
2023/02/24 09:37:02;;;;;;;8.30;2.60;;;;;;;16.27;43.02;100773.63;5012685;28;20045;-61
2023/02/24 09:40:37;;;;;;;16.27;2.83;;;;;;;16.25;42.56;100764.81;5012421;28;20476;-62
2023/02/24 09:42:27;;;;;;;7.57;2.38;;;;;;;16.21;43.15;100756.22;5012506;28;20401;-62
2023/02/24 09:44:55;;;;;;;8.52;2.05;;;;;;;16.15;43.15;100758.72;5020103;28;20523;-61
2023/02/24 09:47:39;;;;;;;4.40;1.70;;;;;;;16.08;42.84;100760.44;5032333;28;20033;-61
2023/02/24 09:50:12;;;;;;;6.72;2.47;;;;;;;15.97;43.77;100763.44;5015918;28;20041;-61
2023/02/24 09:52:41;;;;;;;7.25;1.67;;;;;;;15.88;42.92;100756.31;5020898;28;20034;-62
2023/02/24 09:55:25;;;;;;;9.70;1.90;;;;;;;15.81;43.06;100747.16;4996531;28;20038;-61
2023/02/24 10:00:42;;;;;;;9.20;1.80;;;;;;;15.74;41.94;100731.63;5013711;28;20064;-61
2023/02/24 10:03:18;;;;;;;5.88;1.67;;;;;;;15.70;43.40;100729.44;5012800;28;20025;-60
2023/02/24 10:06:11;;;;;;;13.55;1.42;;;;;;;15.63;42.37;100729.22;5028861;28;20100;-61
2023/02/24 10:08:43;;;;;;;9.20;1.73;;;;;;;15.55;42.47;100723.81;4996056;28;20036;-64
2023/02/24 10:11:10;;;;;;;10.68;2.45;;;;;;;15.48;42.54;100725.47;5012435;28;20036;-60
2023/02/24 10:13:49;;;;;;;8.30;1.75;;;;;;;15.46;42.58;100724.81;5011923;28;20033;-62
2023/02/24 10:16:22;;;;;;;6.80;1.30;;;;;;;15.39;43.50;100721.03;4995598;28;20064;-61
2023/02/24 10:19:22;;;;;;;8.95;1.70;;;;;;;15.34;42.13;100717.97;4995034;28;20519;-62
2023/02/24 10:22:01;;;;;;;8.77;1.55;;;;;;;15.32;43.26;100714.59;4995458;28;20033;-63
2023/02/24 10:24:37;;;;;;;7.35;1.55;;;;;;;15.29;43.25;100709.53;5011894;28;20026;-60
2023/02/24 10:27:51;;;;;;;7.00;1.45;;;;;;;15.24;43.42;100716.41;5012192;28;20033;-60
2023/02/24 10:30:46;;;;;;;9.10;1.58;;;;;;;15.13;42.17;100706.75;4990752;28;20045;-61
2023/02/24 10:33:30;;;;;;;11.05;2.42;;;;;;;15.04;42.50;100700.47;5008440;28;20485;-62
2023/02/24 10:36:11;;;;;;;12.88;1.88;;;;;;;14.97;42.60;100693.16;5028444;28;20488;-61
2023/02/24 10:38:39;;;;;;;6.65;1.80;;;;;;;14.88;43.14;100704.94;5011839;28;20034;-60
2023/02/24 10:41:08;;;;;;;11.77;1.73;;;;;;;14.85;42.94;100694.47;4995552;28;20381;-60
2023/02/24 10:43:44;;;;;;;17.35;2.35;;;;;;;14.77;43.16;100692.53;5011542;28;20068;-60
2023/02/24 10:46:21;;;;;;;8.63;1.70;;;;;;;14.64;43.23;100691.28;4995250;28;20042;-60
2023/02/24 10:48:59;;;;;;;13.80;2.30;;;;;;;14.56;42.55;100684.84;5021290;28;20492;-62
2023/02/24 10:51:32;;;;;;;6.47;1.38;;;;;;;14.52;43.45;100680.75;5015306;28;20468;-62
2023/02/24 10:57:35;;;;;;;10.52;1.67;;;;;;;14.44;43.33;100679.88;4988398;28;20049;-62
2023/02/24 11:00:29;;;;;;;3.85;1.45;;;;;;;14.39;43.21;100676.78;5001864;28;20136;-62
2023/02/24 11:03:05;;;;;;;12.25;1.67;;;;;;;14.35;43.05;100670.88;4990113;28;20052;-62
2023/02/24 11:05:43;;;;;;;7.53;2.03;;;;;;;14.31;42.96;100664.09;5032411;28;20037;-63
2023/02/24 11:08:35;;;;;;;10.88;1.40;;;;;;;14.29;42.28;100667.94;5032351;28;20109;-63
2023/02/24 11:11:05;;;;;;;7.07;2.25;;;;;;;14.27;43.20;100657.31;5031133;28;20053;-63
2023/02/24 11:18:59;;;;;;;14.38;1.80;;;;;;;14.30;42.75;100634.59;4993103;28;20114;-62
2023/02/24 11:21:26;;;;;;;8.80;1.67;;;;;;;14.29;41.94;100628.34;4975406;28;20034;-62
2023/02/24 11:23:55;;;;;;;9.60;1.55;;;;;;;14.29;43.34;100632.91;4992304;28;20046;-62
2023/02/24 11:26:27;;;;;;;3.53;1.75;;;;;;;14.26;42.54;100628.69;4975453;28;20038;-63
2023/02/24 11:29:05;;;;;;;7.22;2.05;;;;;;;14.24;43.60;100633.38;4976264;28;20042;-62
2023/02/24 11:31:38;;;;;;;6.40;2.10;;;;;;;14.19;42.00;100626.75;4996533;28;20049;-63
2023/02/24 11:34:36;;;;;;;15.73;2.38;;;;;;;14.13;43.45;100622.84;4995279;28;20513;-62
2023/02/24 11:37:13;;;;;;;6.40;2.72;;;;;;;14.15;42.79;100612.78;4963034;28;20034;-63
2023/02/24 11:40:03;;;;;;;11.73;2.28;;;;;;;14.27;43.05;100608.81;4996228;28;20034;-63
2023/02/24 11:42:42;;;;;;;9.55;2.90;;;;;;;14.38;41.96;100611.28;4978821;28;20033;-63
2023/02/24 11:45:17;;;;;;;5.18;1.50;;;;;;;14.42;42.75;100596.50;4975515;28;20527;-62
2023/02/24 11:47:49;;;;;;;7.63;1.83;;;;;;;14.41;42.38;100592.09;4977159;28;20049;-62
2023/02/24 11:50:35;;;;;;;9.13;2.10;;;;;;;14.47;43.79;100593.31;4975569;28;20093;-63
2023/02/24 11:53:04;;;;;;;9.18;2.33;;;;;;;14.51;42.96;100589.28;4975451;28;20041;-62
2023/02/24 11:55:41;;;;;;;6.10;2.30;;;;;;;14.53;43.79;100587.28;4975536;28;20081;-63
2023/02/24 11:58:20;;;;;;;12.88;4.20;;;;;;;14.52;42.85;100577.50;4975478;28;20102;-62
2023/02/24 12:00:53;;;;;;;6.95;1.23;;;;;;;14.50;42.58;100577.66;4975434;28;20037;-63
2023/02/24 12:03:44;;;;;;;4.65;1.70;;;;;;;14.50;43.90;100572.28;4959175;28;20025;-62
2023/02/24 12:06:25;;;;;;;5.45;1.30;;;;;;;14.46;42.89;100565.50;4941526;28;20039;-62
2023/02/24 12:08:56;;;;;;;2.97;1.58;;;;;;;14.51;43.24;100571.28;4976472;28;20043;-63
2023/02/24 12:11:33;;;;;;;6.82;1.52;;;;;;;14.54;43.62;100557.44;4959091;28;20082;-63
2023/02/24 12:14:27;;;;;;;8.40;1.55;;;;;;;14.53;43.77;100561.19;4991394;28;20114;-62
2023/02/24 12:17:16;;;;;;;2.90;1.13;;;;;;;14.53;42.96;100549.53;4976350;28;20046;-60
2023/02/24 12:20:04;;;;;;;7.57;2.25;;;;;;;14.56;42.16;100549.22;4976247;28;20458;-60
2023/02/24 12:22:43;;;;;;;7.10;1.60;;;;;;;14.60;42.25;100547.06;4975211;28;20058;-63
2023/02/24 12:25:13;;;;;;;5.63;1.60;;;;;;;14.58;43.27;100542.66;4975402;28;20553;-62